sensor_id;sensor_type;location;lat;lon;timestamp;temperature;humidity
57719;DHT22;43561;50.090;18.522;2023-07-20T00:03:25;19.30;99.90
57719;DHT22;43561;50.090;18.522;2023-07-20T00:13:28;19.00;99.90
57719;DHT22;43561;50.090;18.522;2023-07-20T00:23:30;18.80;99.90
57719;DHT22;43561;50.090;18.522;2023-07-20T00:33:33;18.70;99.90
57719;DHT22;43561;50.090;18.522;2023-07-20T00:43:35;18.10;99.90
57719;DHT22;43561;50.090;18.522;2023-07-20T00:53:37;18.10;99.90
57719;DHT22;43561;50.090;18.522;2023-07-20T01:03:39;18.00;99.90
57719;DHT22;43561;50.090;18.522;2023-07-20T01:13:43;17.70;99.90
57719;DHT22;43561;50.090;18.522;2023-07-20T01:34:00;17.70;99.90
57719;DHT22;43561;50.090;18.522;2023-07-20T01:44:04;17.50;99.90
57719;DHT22;43561;50.090;18.522;2023-07-20T01:54:06;17.40;99.90
57719;DHT22;43561;50.090;18.522;2023-07-20T02:04:07;17.00;99.90
57719;DHT22;43561;50.090;18.522;2023-07-20T02:14:09;16.30;99.90
57719;DHT22;43561;50.090;18.522;2023-07-20T02:24:13;16.20;99.90
57719;DHT22;43561;50.090;18.522;2023-07-20T02:34:15;16.10;99.90
57719;DHT22;43561;50.090;18.522;2023-07-20T02:44:17;16.00;99.90
57719;DHT22;43561;50.090;18.522;2023-07-20T02:54:19;15.90;99.90
57719;DHT22;43561;50.090;18.522;2023-07-20T03:04:21;15.80;99.90
57719;DHT22;43561;50.090;18.522;2023-07-20T03:14:23;15.70;99.90
57719;DHT22;43561;50.090;18.522;2023-07-20T03:24:25;15.70;99.90
57719;DHT22;43561;50.090;18.522;2023-07-20T03:34:28;15.70;99.90
57719;DHT22;43561;50.090;18.522;2023-07-20T03:44:30;15.80;99.90
57719;DHT22;43561;50.090;18.522;2023-07-20T03:54:31;15.90;99.90
57719;DHT22;43561;50.090;18.522;2023-07-20T04:04:33;15.90;99.90
57719;DHT22;43561;50.090;18.522;2023-07-20T04:14:35;16.10;99.90
57719;DHT22;43561;50.090;18.522;2023-07-20T04:24:37;16.30;99.90
57719;DHT22;43561;50.090;18.522;2023-07-20T04:34:39;16.80;99.90
57719;DHT22;43561;50.090;18.522;2023-07-20T04:44:42;16.80;99.90
57719;DHT22;43561;50.090;18.522;2023-07-20T04:54:44;16.90;99.90
57719;DHT22;43561;50.090;18.522;2023-07-20T05:04:47;16.90;99.90
57719;DHT22;43561;50.090;18.522;2023-07-20T05:14:49;17.40;99.90
57719;DHT22;43561;50.090;18.522;2023-07-20T05:24:51;18.10;99.90
57719;DHT22;43561;50.090;18.522;2023-07-20T05:34:54;19.10;99.90
57719;DHT22;43561;50.090;18.522;2023-07-20T05:44:56;20.80;99.90
57719;DHT22;43561;50.090;18.522;2023-07-20T05:54:58;21.80;99.90
57719;DHT22;43561;50.090;18.522;2023-07-20T06:05:00;22.30;99.90
57719;DHT22;43561;50.090;18.522;2023-07-20T06:15:03;21.90;99.90
57719;DHT22;43561;50.090;18.522;2023-07-20T06:25:06;20.90;99.90
57719;DHT22;43561;50.090;18.522;2023-07-20T06:35:08;20.50;99.90
57719;DHT22;43561;50.090;18.522;2023-07-20T06:45:10;20.50;99.90
57719;DHT22;43561;50.090;18.522;2023-07-20T06:55:12;21.20;99.90
57719;DHT22;43561;50.090;18.522;2023-07-20T07:05:14;20.20;99.90
57719;DHT22;43561;50.090;18.522;2023-07-20T07:15:19;20.50;99.90
57719;DHT22;43561;50.090;18.522;2023-07-20T07:25:21;21.70;99.90
57719;DHT22;43561;50.090;18.522;2023-07-20T07:35:24;21.90;99.90
57719;DHT22;43561;50.090;18.522;2023-07-20T07:45:26;23.50;99.90
57719;DHT22;43561;50.090;18.522;2023-07-20T07:55:31;23.80;99.30
57719;DHT22;43561;50.090;18.522;2023-07-20T08:05:34;22.20;99.90
57719;DHT22;43561;50.090;18.522;2023-07-20T08:15:35;24.60;95.10
57719;DHT22;43561;50.090;18.522;2023-07-20T08:25:39;23.10;97.90
57719;DHT22;43561;50.090;18.522;2023-07-20T08:35:42;22.80;98.40
57719;DHT22;43561;50.090;18.522;2023-07-20T08:45:45;23.00;99.20
57719;DHT22;43561;50.090;18.522;2023-07-20T08:55:51;25.10;86.10
57719;DHT22;43561;50.090;18.522;2023-07-20T09:05:53;23.90;89.40
57719;DHT22;43561;50.090;18.522;2023-07-20T09:15:55;23.50;92.40
57719;DHT22;43561;50.090;18.522;2023-07-20T09:25:58;23.20;93.10
57719;DHT22;43561;50.090;18.522;2023-07-20T09:36:03;23.10;92.60
57719;DHT22;43561;50.090;18.522;2023-07-20T09:46:41;23.30;92.40
57719;DHT22;43561;50.090;18.522;2023-07-20T09:56:48;21.40;99.90
57719;DHT22;43561;50.090;18.522;2023-07-20T10:06:52;21.50;99.90
57719;DHT22;43561;50.090;18.522;2023-07-20T10:16:58;22.30;99.90
57719;DHT22;43561;50.090;18.522;2023-07-20T10:27:02;22.70;99.90
57719;DHT22;43561;50.090;18.522;2023-07-20T10:37:05;23.40;95.40
57719;DHT22;43561;50.090;18.522;2023-07-20T10:47:11;23.30;90.30
57719;DHT22;43561;50.090;18.522;2023-07-20T10:57:31;23.70;78.70
57719;DHT22;43561;50.090;18.522;2023-07-20T11:07:37;23.40;78.50
57719;DHT22;43561;50.090;18.522;2023-07-20T11:17:39;23.10;72.80
57719;DHT22;43561;50.090;18.522;2023-07-20T11:27:45;24.50;67.00
57719;DHT22;43561;50.090;18.522;2023-07-20T11:37:47;23.60;67.50
57719;DHT22;43561;50.090;18.522;2023-07-20T11:47:49;24.80;68.00
57719;DHT22;43561;50.090;18.522;2023-07-20T12:08:04;25.00;60.90
57719;DHT22;43561;50.090;18.522;2023-07-20T12:18:06;25.00;62.30
57719;DHT22;43561;50.090;18.522;2023-07-20T12:28:11;23.70;65.00
57719;DHT22;43561;50.090;18.522;2023-07-20T12:38:14;23.90;59.80
57719;DHT22;43561;50.090;18.522;2023-07-20T12:48:16;24.20;59.70
57719;DHT22;43561;50.090;18.522;2023-07-20T12:58:18;24.20;60.80
57719;DHT22;43561;50.090;18.522;2023-07-20T13:08:20;24.30;59.10
57719;DHT22;43561;50.090;18.522;2023-07-20T13:18:22;24.20;58.90
57719;DHT22;43561;50.090;18.522;2023-07-20T13:28:24;24.20;57.30
57719;DHT22;43561;50.090;18.522;2023-07-20T13:38:26;24.00;59.30
57719;DHT22;43561;50.090;18.522;2023-07-20T13:48:28;23.60;58.70
57719;DHT22;43561;50.090;18.522;2023-07-20T13:58:30;22.90;61.20
57719;DHT22;43561;50.090;18.522;2023-07-20T14:08:32;20.80;67.80
57719;DHT22;43561;50.090;18.522;2023-07-20T14:18:34;21.20;72.60
57719;DHT22;43561;50.090;18.522;2023-07-20T14:28:39;21.00;99.20
57719;DHT22;43561;50.090;18.522;2023-07-20T14:38:42;20.70;99.90
57719;DHT22;43561;50.090;18.522;2023-07-20T14:48:43;20.90;96.30
57719;DHT22;43561;50.090;18.522;2023-07-20T14:58:45;21.60;75.30
57719;DHT22;43561;50.090;18.522;2023-07-20T15:08:47;21.70;75.20
57719;DHT22;43561;50.090;18.522;2023-07-20T15:18:49;21.80;77.30
57719;DHT22;43561;50.090;18.522;2023-07-20T15:28:53;22.00;69.20
57719;DHT22;43561;50.090;18.522;2023-07-20T15:38:55;21.80;66.60
57719;DHT22;43561;50.090;18.522;2023-07-20T15:48:59;21.40;68.60
57719;DHT22;43561;50.090;18.522;2023-07-20T15:59:01;21.20;71.60
57719;DHT22;43561;50.090;18.522;2023-07-20T16:09:03;21.00;74.30
57719;DHT22;43561;50.090;18.522;2023-07-20T16:19:06;21.20;77.90
57719;DHT22;43561;50.090;18.522;2023-07-20T16:29:08;21.10;80.40
57719;DHT22;43561;50.090;18.522;2023-07-20T16:39:12;21.10;83.80
57719;DHT22;43561;50.090;18.522;2023-07-20T16:49:17;21.30;87.40
57719;DHT22;43561;50.090;18.522;2023-07-20T16:59:19;21.00;89.00
57719;DHT22;43561;50.090;18.522;2023-07-20T17:09:21;21.10;92.10
57719;DHT22;43561;50.090;18.522;2023-07-20T17:19:23;21.00;95.00
57719;DHT22;43561;50.090;18.522;2023-07-20T17:29:33;20.80;97.90
57719;DHT22;43561;50.090;18.522;2023-07-20T17:39:35;20.80;99.30
57719;DHT22;43561;50.090;18.522;2023-07-20T17:49:40;20.60;97.90
57719;DHT22;43561;50.090;18.522;2023-07-20T17:59:42;20.60;98.70
57719;DHT22;43561;50.090;18.522;2023-07-20T18:09:47;20.40;99.40
57719;DHT22;43561;50.090;18.522;2023-07-20T18:19:49;20.20;99.80
57719;DHT22;43561;50.090;18.522;2023-07-20T18:29:51;20.00;99.90
57719;DHT22;43561;50.090;18.522;2023-07-20T18:39:53;20.10;99.90
57719;DHT22;43561;50.090;18.522;2023-07-20T18:49:55;19.90;99.90
57719;DHT22;43561;50.090;18.522;2023-07-20T18:59:58;20.10;99.90
57719;DHT22;43561;50.090;18.522;2023-07-20T19:10:02;20.50;99.90
57719;DHT22;43561;50.090;18.522;2023-07-20T19:20:05;20.10;99.90
57719;DHT22;43561;50.090;18.522;2023-07-20T19:30:07;19.90;99.90
57719;DHT22;43561;50.090;18.522;2023-07-20T19:40:10;19.70;99.90
57719;DHT22;43561;50.090;18.522;2023-07-20T19:50:12;19.70;99.90
57719;DHT22;43561;50.090;18.522;2023-07-20T20:00:14;19.30;99.90
57719;DHT22;43561;50.090;18.522;2023-07-20T20:10:16;19.20;99.90
57719;DHT22;43561;50.090;18.522;2023-07-20T20:20:18;18.90;99.90
57719;DHT22;43561;50.090;18.522;2023-07-20T20:30:20;19.00;99.90
57719;DHT22;43561;50.090;18.522;2023-07-20T20:40:23;19.00;99.90
57719;DHT22;43561;50.090;18.522;2023-07-20T20:50:25;18.80;99.90
57719;DHT22;43561;50.090;18.522;2023-07-20T21:00:26;18.70;99.90
57719;DHT22;43561;50.090;18.522;2023-07-20T21:10:28;18.80;99.90
57719;DHT22;43561;50.090;18.522;2023-07-20T21:20:30;18.50;99.90
57719;DHT22;43561;50.090;18.522;2023-07-20T21:30:32;18.60;99.90
57719;DHT22;43561;50.090;18.522;2023-07-20T21:40:37;18.50;99.90
57719;DHT22;43561;50.090;18.522;2023-07-20T21:50:39;18.30;99.90
57719;DHT22;43561;50.090;18.522;2023-07-20T22:00:47;18.20;99.90
57719;DHT22;43561;50.090;18.522;2023-07-20T22:10:49;18.00;99.90
57719;DHT22;43561;50.090;18.522;2023-07-20T22:20:51;17.60;99.90
57719;DHT22;43561;50.090;18.522;2023-07-20T22:30:57;17.40;99.90
57719;DHT22;43561;50.090;18.522;2023-07-20T22:40:59;17.30;99.90
57719;DHT22;43561;50.090;18.522;2023-07-20T22:51:01;17.10;99.90
57719;DHT22;43561;50.090;18.522;2023-07-20T23:01:08;16.80;99.90
57719;DHT22;43561;50.090;18.522;2023-07-20T23:11:10;16.80;99.90
57719;DHT22;43561;50.090;18.522;2023-07-20T23:21:12;16.50;99.90
57719;DHT22;43561;50.090;18.522;2023-07-20T23:31:14;16.40;99.90
57719;DHT22;43561;50.090;18.522;2023-07-20T23:41:16;16.30;99.90
57719;DHT22;43561;50.090;18.522;2023-07-20T23:51:18;16.10;99.90
